Mooresville, Alabama
Current Conditions -  °F | °C
As of 2:53 AM on Thursday 23 Oct 2014 (Local Time) from KDCU Reporting Station
Clear Clear  
Wind Chill: 42°   Ceiling: Unl
Heat Index: 45°   Visibility: 10mi
Dew Point: 41°   Wind: 6mph
Humidity: 86%   Direction: 20°NNE
Pressure: 30.16"   Gusts: NA
Location:  34.63°N, 86.88°W
Report Text: KDCU 230753Z AUTO 02005KT 10SM CLR 07/05 A3016 RMK AO2 SLP212 T00720050
Loading
Personal Weather Stations






























Interactive Weather Map
Tropical Storm Tracking
New forecast layout! Learn more

10-Day Weather Forecast

Advertisements
Track Severe Weather on mobile